Time,TemperatureF,DewpointF,PressureIn,WindDirection,WindDirectionDegrees,WindSpeedMPH,WindSpeedGustMPH,Humidity,HourlyPrecipIn,Conditions,Clouds,dailyrainin,SoftwareType,DateUTC
2013-07-05 00:09:00,56.7,47.0,29.82,NW,322,2.0,7.0,69,0.00,,,0.00,weatherlink.com 1.10,2013-07-05 07:09:00,
2013-07-05 00:24:00,56.3,46.0,29.81,NW,319,1.0,9.0,69,0.00,,,0.00,weatherlink.com 1.10,2013-07-05 07:24:00,
2013-07-05 00:39:00,55.0,46.0,29.82,SE,140,0.0,4.0,72,0.00,,,0.00,weatherlink.com 1.10,2013-07-05 07:39:00,
2013-07-05 00:54:00,54.6,46.0,29.82,SE,144,0.0,0.0,73,0.00,,,0.00,weatherlink.com 1.10,2013-07-05 07:54:00,
2013-07-05 01:09:00,56.4,46.0,29.82,NW,312,8.0,10.0,68,0.00,,,0.00,weatherlink.com 1.10,2013-07-05 08:09:00,
2013-07-05 01:24:00,56.4,46.0,29.82,NNW,327,3.0,10.0,68,0.00,,,0.00,weatherlink.com 1.10,2013-07-05 08:24:00,
2013-07-05 01:39:00,55.8,46.0,29.82,NW,321,3.0,9.0,69,0.00,,,0.00,weatherlink.com 1.10,2013-07-05 08:39:00,
2013-07-05 01:55:00,54.9,45.0,29.82,NW,320,4.0,7.0,70,0.00,,,0.00,weatherlink.com 1.10,2013-07-05 08:55:00,
2013-07-05 02:10:00,54.2,45.0,29.82,NW,310,2.0,7.0,72,0.00,,,0.00,weatherlink.com 1.10,2013-07-05 09:10:00,
2013-07-05 02:40:00,52.2,45.0,29.82,NW,310,0.0,0.0,76,0.00,,,0.00,weatherlink.com 1.10,2013-07-05 09:40:00,
2013-07-05 02:55:00,51.5,45.0,29.82,NW,311,0.0,0.0,77,0.00,,,0.00,weatherlink.com 1.10,2013-07-05 09:55:00,
2013-07-05 03:11:00,51.0,44.0,29.82,NW,311,0.0,0.0,78,0.00,,,0.00,weatherlink.com 1.10,2013-07-05 10:11:00,
2013-07-05 03:26:00,50.3,44.0,29.82,NW,311,0.0,0.0,80,0.00,,,0.00,weatherlink.com 1.10,2013-07-05 10:26:00,
2013-07-05 03:41:00,51.2,45.0,29.81,NW,311,5.0,7.0,79,0.00,,,0.00,weatherlink.com 1.10,2013-07-05 10:41:00,
2013-07-05 03:56:00,51.5,45.0,29.81,NW,312,0.0,4.0,77,0.00,,,0.00,weatherlink.com 1.10,2013-07-05 10:56:00,
2013-07-05 04:11:00,51.5,44.0,29.82,NW,311,0.0,0.0,76,0.00,,,0.00,weatherlink.com 1.10,2013-07-05 11:11:00,
2013-07-05 04:26:00,50.9,44.0,29.82,NW,312,0.0,0.0,77,0.00,,,0.00,weatherlink.com 1.10,2013-07-05 11:26:00,
2013-07-05 04:41:00,50.5,44.0,29.82,NW,311,0.0,0.0,78,0.00,,,0.00,weatherlink.com 1.10,2013-07-05 11:41:00,
2013-07-05 04:56:00,50.4,43.0,29.82,NW,320,0.0,2.0,77,0.00,,,0.00,weatherlink.com 1.10,2013-07-05 11:56:00,
2013-07-05 05:12:00,51.1,44.0,29.83,NW,320,0.0,0.0,76,0.00,,,0.00,weatherlink.com 1.10,2013-07-05 12:12:00,
2013-07-05 05:27:00,49.1,42.0,29.83,NW,321,0.0,0.0,77,0.00,,,0.00,weatherlink.com 1.10,2013-07-05 12:27:00,
2013-07-05 05:57:00,48.0,42.0,29.83,NW,321,0.0,0.0,81,0.00,,,0.00,weatherlink.com 1.10,2013-07-05 12:57:00,
2013-07-05 06:27:00,50.7,43.0,29.84,NW,321,0.0,0.0,75,0.00,,,0.00,weatherlink.com 1.10,2013-07-05 13:27:00,
2013-07-05 06:44:00,51.2,44.0,29.85,NW,321,0.0,0.0,76,0.00,,,0.00,weatherlink.com 1.10,2013-07-05 13:44:00,
2013-07-05 06:59:00,51.5,43.0,29.85,NW,321,0.0,0.0,73,0.00,,,0.00,weatherlink.com 1.10,2013-07-05 13:59:00,
2013-07-05 07:14:00,53.6,44.0,29.85,NW,318,9.0,15.0,71,0.00,,,0.00,weatherlink.com 1.10,2013-07-05 14:14:00,
2013-07-05 07:29:00,55.1,44.0,29.85,NW,319,6.0,15.0,67,0.00,,,0.00,weatherlink.com 1.10,2013-07-05 14:29:00,
2013-07-05 07:44:00,56.0,45.0,29.86,NW,317,1.0,12.0,66,0.00,,,0.00,weatherlink.com 1.10,2013-07-05 14:44:00,
2013-07-05 07:59:00,57.3,44.0,29.85,NW,326,9.0,13.0,61,0.00,,,0.00,weatherlink.com 1.10,2013-07-05 14:59:00,
2013-07-05 08:29:00,58.7,44.0,29.85,NW,318,13.0,18.0,59,0.00,,,0.00,weatherlink.com 1.10,2013-07-05 15:29:00,
2013-07-05 08:44:00,59.0,44.0,29.85,NW,326,11.0,18.0,58,0.00,,,0.00,weatherlink.com 1.10,2013-07-05 15:44:00,
2013-07-05 08:59:00,60.0,44.0,29.85,WNW,303,8.0,19.0,57,0.00,,,0.00,weatherlink.com 1.10,2013-07-05 15:59:00,
2013-07-05 09:14:00,60.7,45.0,29.85,NNW,327,3.0,15.0,56,0.00,,,0.00,weatherlink.com 1.10,2013-07-05 16:14:00,
2013-07-05 09:29:00,61.2,44.0,29.85,NW,318,6.0,17.0,54,0.00,,,0.00,weatherlink.com 1.10,2013-07-05 16:29:00,
2013-07-05 09:45:00,61.7,45.0,29.86,NW,319,1.0,15.0,55,0.00,,,0.00,weatherlink.com 1.10,2013-07-05 16:45:00,
2013-07-05 10:00:00,62.5,45.0,29.85,NW,319,6.0,13.0,53,0.00,,,0.00,weatherlink.com 1.10,2013-07-05 17:00:00,
2013-07-05 10:15:00,63.6,44.0,29.84,NW,319,8.0,12.0,50,0.00,,,0.00,weatherlink.com 1.10,2013-07-05 17:15:00,
2013-07-05 10:30:00,64.0,44.0,29.84,NNW,348,0.0,13.0,48,0.00,,,0.00,weatherlink.com 1.10,2013-07-05 17:30:00,
2013-07-05 10:45:00,65.2,45.0,29.84,WNW,302,8.0,14.0,49,0.00,,,0.00,weatherlink.com 1.10,2013-07-05 17:45:00,
2013-07-05 11:00:00,66.0,46.0,29.83,NNW,327,0.0,13.0,48,0.00,,,0.00,weatherlink.com 1.10,2013-07-05 18:00:00,
2013-07-05 11:15:00,65.8,44.0,29.83,NW,311,7.0,18.0,46,0.00,,,0.00,weatherlink.com 1.10,2013-07-05 18:15:00,
2013-07-05 11:31:00,67.1,46.0,29.83,NNW,334,3.0,12.0,47,0.00,,,0.00,weatherlink.com 1.10,2013-07-05 18:31:00,
2013-07-05 11:46:00,67.9,45.0,29.82,NNW,330,2.0,12.0,44,0.00,,,0.00,weatherlink.com 1.10,2013-07-05 18:46:00,
2013-07-05 12:01:00,68.5,45.0,29.82,NW,317,6.0,13.0,43,0.00,,,0.00,weatherlink.com 1.10,2013-07-05 19:01:00,
2013-07-05 12:16:00,69.5,47.0,29.82,NW,312,8.0,15.0,44,0.00,,,0.00,weatherlink.com 1.10,2013-07-05 19:16:00,
2013-07-05 12:31:00,70.8,46.0,29.81,North,355,4.0,13.0,41,0.00,,,0.00,weatherlink.com 1.10,2013-07-05 19:31:00,
2013-07-05 12:46:00,71.4,44.0,29.81,NW,309,7.0,14.0,37,0.00,,,0.00,weatherlink.com 1.10,2013-07-05 19:46:00,
2013-07-05 13:02:00,72.2,45.0,29.80,NW,312,7.0,14.0,38,0.00,,,0.00,weatherlink.com 1.10,2013-07-05 20:02:00,
2013-07-05 13:17:00,72.1,45.0,29.80,NW,317,8.0,14.0,38,0.00,,,0.00,weatherlink.com 1.10,2013-07-05 20:17:00,
2013-07-05 13:32:00,73.3,44.0,29.80,NW,324,7.0,12.0,35,0.00,,,0.00,weatherlink.com 1.10,2013-07-05 20:32:00,
2013-07-05 13:47:00,74.6,45.0,29.80,NW,317,8.0,12.0,35,0.00,,,0.00,weatherlink.com 1.10,2013-07-05 20:47:00,
2013-07-05 14:02:00,75.3,45.0,29.79,NW,318,4.0,12.0,34,0.00,,,0.00,weatherlink.com 1.10,2013-07-05 21:02:00,
2013-07-05 14:17:00,75.5,45.0,29.79,NW,325,10.0,13.0,34,0.00,,,0.00,weatherlink.com 1.10,2013-07-05 21:17:00,
2013-07-05 14:34:00,76.6,45.0,29.78,NW,323,7.0,13.0,32,0.00,,,0.00,weatherlink.com 1.10,2013-07-05 21:34:00,
2013-07-05 14:49:00,76.6,45.0,29.78,NW,319,6.0,15.0,32,0.00,,,0.00,weatherlink.com 1.10,2013-07-05 21:49:00,
2013-07-05 15:04:00,76.9,45.0,29.78,NW,313,10.0,15.0,32,0.00,,,0.00,weatherlink.com 1.10,2013-07-05 22:04:00,
2013-07-05 15:19:00,76.6,46.0,29.78,NW,309,13.0,15.0,34,0.00,,,0.00,weatherlink.com 1.10,2013-07-05 22:19:00,
2013-07-05 15:34:00,76.7,44.0,29.78,NW,316,10.0,16.0,31,0.00,,,0.00,weatherlink.com 1.10,2013-07-05 22:34:00,
2013-07-05 15:49:00,76.4,45.0,29.78,NW,319,11.0,22.0,33,0.00,,,0.00,weatherlink.com 1.10,2013-07-05 22:49:00,
2013-07-05 16:04:00,76.3,44.0,29.77,NW,310,11.0,17.0,32,0.00,,,0.00,weatherlink.com 1.10,2013-07-05 23:04:00,
2013-07-05 16:19:00,76.2,43.0,29.77,NW,321,10.0,19.0,30,0.00,,,0.00,weatherlink.com 1.10,2013-07-05 23:19:00,
2013-07-05 16:34:00,75.6,44.0,29.77,NW,313,6.0,20.0,33,0.00,,,0.00,weatherlink.com 1.10,2013-07-05 23:34:00,
2013-07-05 16:49:00,75.3,45.0,29.76,NW,319,13.0,17.0,34,0.00,,,0.00,weatherlink.com 1.10,2013-07-05 23:49:00,
2013-07-05 17:04:00,75.3,44.0,29.76,NW,315,11.0,19.0,33,0.00,,,0.00,weatherlink.com 1.10,2013-07-06 00:04:00,
2013-07-05 17:19:00,74.1,43.0,29.76,NW,307,12.0,20.0,33,0.00,,,0.00,weatherlink.com 1.10,2013-07-06 00:19:00,
2013-07-05 17:34:00,73.9,43.0,29.76,NW,312,16.0,21.0,33,0.00,,,0.00,weatherlink.com 1.10,2013-07-06 00:34:00,
2013-07-05 17:49:00,73.2,44.0,29.75,NW,313,11.0,20.0,35,0.00,,,0.00,weatherlink.com 1.10,2013-07-06 00:49:00,
2013-07-05 18:04:00,72.7,45.0,29.75,NW,312,9.0,22.0,37,0.00,,,0.00,weatherlink.com 1.10,2013-07-06 01:04:00,
2013-07-05 18:19:00,72.2,41.0,29.75,NW,326,9.0,22.0,33,0.00,,,0.00,weatherlink.com 1.10,2013-07-06 01:19:00,
2013-07-05 18:34:00,71.3,41.0,29.75,NW,310,13.0,20.0,34,0.00,,,0.00,weatherlink.com 1.10,2013-07-06 01:34:00,
2013-07-05 18:50:00,71.2,41.0,29.75,NW,315,13.0,19.0,33,0.00,,,0.00,weatherlink.com 1.10,2013-07-06 01:50:00,
2013-07-05 19:05:00,70.2,41.0,29.75,NNW,327,11.0,18.0,35,0.00,,,0.00,weatherlink.com 1.10,2013-07-06 02:05:00,
2013-07-05 19:20:00,69.6,39.0,29.76,NW,325,16.0,20.0,33,0.00,,,0.00,weatherlink.com 1.10,2013-07-06 02:20:00,
2013-07-05 19:35:00,68.8,40.0,29.76,NW,318,9.0,21.0,35,0.00,,,0.00,weatherlink.com 1.10,2013-07-06 02:35:00,
2013-07-05 19:50:00,67.8,39.0,29.76,NW,314,8.0,19.0,35,0.00,,,0.00,weatherlink.com 1.10,2013-07-06 02:50:00,
2013-07-05 20:05:00,66.7,39.0,29.77,NW,315,11.0,18.0,37,0.00,,,0.00,weatherlink.com 1.10,2013-07-06 03:05:00,
2013-07-05 20:20:00,65.5,38.0,29.77,WNW,299,9.0,17.0,37,0.00,,,0.00,weatherlink.com 1.10,2013-07-06 03:20:00,
2013-07-05 20:36:00,64.4,38.0,29.78,NW,314,12.0,20.0,38,0.00,,,0.00,weatherlink.com 1.10,2013-07-06 03:36:00,
2013-07-05 20:51:00,63.7,37.0,29.78,NW,305,8.0,20.0,38,0.00,,,0.00,weatherlink.com 1.10,2013-07-06 03:51:00,
2013-07-05 21:07:00,62.7,38.0,29.79,NW,323,12.0,22.0,40,0.00,,,0.00,weatherlink.com 1.10,2013-07-06 04:07:00,
2013-07-05 21:22:00,61.4,39.0,29.80,NW,308,10.0,21.0,44,0.00,,,0.00,weatherlink.com 1.10,2013-07-06 04:22:00,
2013-07-05 21:36:00,60.5,40.0,29.80,NNW,338,12.0,19.0,48,0.00,,,0.00,weatherlink.com 1.10,2013-07-06 04:36:00,
2013-07-05 21:51:00,59.8,40.0,29.81,NW,306,14.0,19.0,48,0.00,,,0.00,weatherlink.com 1.10,2013-07-06 04:51:00,
2013-07-05 22:07:00,59.6,39.0,29.81,NW,309,12.0,18.0,47,0.00,,,0.00,weatherlink.com 1.10,2013-07-06 05:07:00,
2013-07-05 22:21:00,59.0,39.0,29.81,NW,315,10.0,19.0,47,0.00,,,0.00,weatherlink.com 1.10,2013-07-06 05:21:00,
2013-07-05 22:37:00,58.7,40.0,29.82,NW,325,15.0,18.0,50,0.00,,,0.00,weatherlink.com 1.10,2013-07-06 05:37:00,
2013-07-05 22:53:00,58.4,41.0,29.81,NW,318,9.0,17.0,52,0.00,,,0.00,weatherlink.com 1.10,2013-07-06 05:53:00,
2013-07-05 23:07:00,58.1,41.0,29.81,NW,314,7.0,14.0,54,0.00,,,0.00,weatherlink.com 1.10,2013-07-06 06:07:00,
2013-07-05 23:22:00,57.4,42.0,29.82,NW,317,7.0,11.0,56,0.00,,,0.00,weatherlink.com 1.10,2013-07-06 06:22:00,
2013-07-05 23:38:00,57.0,42.0,29.82,NW,319,3.0,12.0,58,0.00,,,0.00,weatherlink.com 1.10,2013-07-06 06:38:00,
2013-07-05 23:52:00,56.4,43.0,29.82,NW,317,7.0,9.0,61,0.00,,,0.00,weatherlink.com 1.10,2013-07-06 06:52:00,